createdAt,value
2018-03-01T00:00:04.459Z,15.10
2018-03-01T00:02:36.436Z,15.90
2018-03-01T00:05:04.724Z,17.90
2018-03-01T00:07:33.021Z,16.12
2018-03-01T00:10:00.581Z,17.48
2018-03-01T00:12:28.110Z,16.10
2018-03-01T00:14:58.400Z,15.25
2018-03-01T00:17:26.111Z,12.07
2018-03-01T00:19:54.406Z,11.10
2018-03-01T00:22:33.689Z,12.35
2018-03-01T00:25:01.219Z,12.05
2018-03-01T00:27:32.715Z,17.42
2018-03-01T00:30:03.059Z,17.25
2018-03-01T00:32:30.840Z,10.95
2018-03-01T00:34:58.363Z,16.40
2018-03-01T00:37:25.925Z,17.12
2018-03-01T00:39:53.459Z,9.38
2018-03-01T00:42:26.094Z,13.50
2018-03-01T00:44:55.586Z,18.90
2018-03-01T00:47:23.878Z,6.12
2018-03-01T00:49:51.395Z,16.30
2018-03-01T00:52:19.333Z,10.82
2018-03-01T00:54:47.836Z,15.45
2018-03-01T00:57:17.320Z,12.93
2018-03-01T00:59:44.878Z,10.98
2018-03-01T01:02:12.401Z,17.75
2018-03-01T01:04:40.689Z,16.95
2018-03-01T01:07:09.355Z,14.48
2018-03-01T01:09:37.653Z,13.80
2018-03-01T01:12:06.176Z,12.68
2018-03-01T01:14:33.728Z,13.23
2018-03-01T01:17:01.249Z,15.65
2018-03-01T01:19:30.817Z,10.63
2018-03-01T01:21:58.478Z,8.13
2018-03-01T01:24:26.950Z,13.43
2018-03-01T01:26:54.495Z,13.13
2018-03-01T01:29:22.059Z,17.50
2018-03-01T01:31:49.576Z,17.40
2018-03-01T01:34:26.282Z,13.02
2018-03-01T01:36:53.861Z,17.40
2018-03-01T01:39:21.668Z,16.25
2018-03-01T01:41:49.375Z,12.57
2018-03-01T01:44:18.389Z,15.30
2018-03-01T01:46:46.719Z,11.55
2018-03-01T01:49:16.525Z,17.87
2018-03-01T01:51:44.049Z,18.70
2018-03-01T01:54:11.597Z,13.85
2018-03-01T01:56:39.272Z,11.27
2018-03-01T01:59:06.809Z,18.20
2018-03-01T02:01:35.312Z,14.70
2018-03-01T02:04:02.860Z,16.33
2018-03-01T02:06:30.386Z,15.70
2018-03-01T02:08:57.918Z,17.10
2018-03-01T02:11:26.654Z,13.88
2018-03-01T02:13:59.143Z,13.75
2018-03-01T02:16:27.645Z,14.85
2018-03-01T02:21:29.051Z,18.73
2018-03-01T02:24:04.660Z,17.67
2018-03-01T02:26:34.514Z,20.15
2018-03-01T02:29:02.921Z,13.02
2018-03-01T02:31:33.505Z,14.87
2018-03-01T02:34:01.873Z,12.48
2018-03-01T02:36:33.039Z,11.63
2018-03-01T02:39:00.583Z,17.60
2018-03-01T02:41:34.186Z,19.35
2018-03-01T02:44:02.493Z,18.90
2018-03-01T02:46:30.028Z,19.25
2018-03-01T02:48:58.037Z,15.50
2018-03-01T02:51:25.581Z,14.40
2018-03-01T02:53:54.103Z,20.90
2018-03-01T02:56:25.684Z,12.00
2018-03-01T02:58:53.991Z,17.98
2018-03-01T03:01:21.524Z,12.68
2018-03-01T03:03:49.854Z,17.98
2018-03-01T03:06:17.514Z,15.93
2018-03-01T03:13:52.965Z,22.25
2018-03-01T03:18:53.239Z,18.70
2018-03-01T03:23:55.044Z,20.27
2018-03-01T03:26:23.582Z,17.92
2018-03-01T03:28:51.289Z,16.42
2018-03-01T03:36:22.984Z,14.27
2018-03-01T03:38:52.351Z,14.95
2018-03-01T03:41:19.893Z,19.48
2018-03-01T03:43:53.786Z,20.70
2018-03-01T03:46:22.342Z,14.55
2018-03-01T03:48:50.993Z,11.45
2018-03-01T03:51:18.598Z,12.20
2018-03-01T03:53:47.972Z,19.65
2018-03-01T03:56:17.317Z,22.80
2018-03-01T03:58:45.063Z,20.35
2018-03-01T04:01:15.532Z,15.73
2018-03-01T04:03:43.201Z,16.48
2018-03-01T04:06:10.883Z,20.77
2018-03-01T04:08:40.449Z,21.00
2018-03-01T04:11:10.024Z,16.27
2018-03-01T04:13:38.483Z,15.13
2018-03-01T04:16:06.981Z,13.70
2018-03-01T04:21:08.373Z,18.77
2018-03-01T04:23:35.892Z,20.25
2018-03-01T04:26:03.426Z,17.70
2018-03-01T04:28:32.978Z,21.85
2018-03-01T04:31:02.268Z,14.43
2018-03-01T04:33:35.670Z,19.33
2018-03-01T04:36:05.006Z,16.77
2018-03-01T04:38:32.504Z,18.42
2018-03-01T04:41:00.572Z,22.37
2018-03-01T04:43:28.149Z,20.15
2018-03-01T04:45:55.693Z,22.37
2018-03-01T04:48:23.271Z,17.05
2018-03-01T04:50:50.814Z,22.13
2018-03-01T04:53:18.348Z,19.60
2018-03-01T04:55:52.673Z,22.67
2018-03-01T04:58:30.147Z,19.33
2018-03-01T05:00:59.730Z,21.58
2018-03-01T05:03:30.054Z,17.65
2018-03-01T05:06:02.343Z,14.55
2018-03-01T05:08:30.899Z,17.55
2018-03-01T05:10:59.276Z,14.68
2018-03-01T05:13:27.096Z,18.45
2018-03-01T05:15:57.642Z,19.25
2018-03-01T05:18:27.313Z,20.20
2018-03-01T05:21:03.494Z,17.45
2018-03-01T05:23:35.855Z,9.55
2018-03-01T05:26:03.855Z,21.35
2018-03-01T05:28:33.107Z,17.55
2018-03-01T05:31:13.890Z,19.02
2018-03-01T05:33:43.833Z,21.23
2018-03-01T05:36:14.949Z,19.80
2018-03-01T05:43:52.012Z,18.55
2018-03-01T05:54:27.875Z,18.73
2018-03-01T05:56:55.957Z,21.05
2018-03-01T06:09:33.312Z,21.17
2018-03-01T06:12:01.101Z,19.73
2018-03-01T06:14:35.592Z,19.15
2018-03-01T06:17:10.678Z,10.85
2018-03-01T06:19:38.931Z,16.60
2018-03-01T06:24:42.364Z,21.12
2018-03-01T06:29:42.770Z,16.45
2018-03-01T06:34:43.136Z,19.45
2018-03-01T06:37:11.800Z,19.10
2018-03-01T06:39:41.266Z,19.83
2018-03-01T06:44:56.001Z,16.50
2018-03-01T06:47:25.338Z,22.73
2018-03-01T06:49:52.884Z,12.13
2018-03-01T06:52:20.422Z,14.75
2018-03-01T06:54:48.289Z,17.40
2018-03-01T06:57:16.897Z,18.15
2018-03-01T06:59:44.577Z,18.17
2018-03-01T07:02:13.152Z,19.00
2018-03-01T07:04:49.365Z,11.70
2018-03-01T07:07:18.078Z,12.57
2018-03-01T07:09:51.580Z,10.40
2018-03-01T07:12:19.291Z,20.30
2018-03-01T07:14:50.836Z,16.17
2018-03-01T07:17:19.600Z,11.57
2018-03-01T07:19:47.708Z,18.83
2018-03-01T07:22:16.400Z,11.18
2018-03-01T07:24:44.060Z,20.00
2018-03-01T07:27:12.425Z,21.60
2018-03-01T07:29:40.222Z,19.67
2018-03-01T07:32:15.758Z,22.60
2018-03-01T07:34:45.482Z,21.83
2018-03-01T07:37:13.246Z,11.20
2018-03-01T07:39:41.896Z,12.43
2018-03-01T07:42:17.389Z,19.73
2018-03-01T07:44:45.475Z,18.50
2018-03-01T07:47:16.946Z,18.30
2018-03-01T07:49:45.365Z,20.37
2018-03-01T07:52:13.177Z,19.15
2018-03-01T07:54:40.856Z,18.62
2018-03-01T07:57:09.237Z,16.30
2018-03-01T07:59:37.481Z,13.98
2018-03-01T08:04:40.665Z,19.58
2018-03-01T08:07:12.414Z,12.73
2018-03-01T08:09:43.686Z,20.45
2018-03-01T08:20:18.536Z,13.95
2018-03-01T08:22:46.125Z,18.05
2018-03-01T08:25:13.801Z,19.45
2018-03-01T08:27:41.796Z,14.45
2018-03-01T08:30:09.465Z,14.65
2018-03-01T08:32:37.821Z,23.38
2018-03-01T08:35:06.411Z,19.45
2018-03-01T08:37:34.169Z,20.60
2018-03-01T08:40:01.757Z,19.55
2018-03-01T08:42:30.209Z,22.20
2018-03-01T08:44:57.795Z,22.45
2018-03-01T08:47:26.137Z,21.42
2018-03-01T08:49:54.500Z,19.42
2018-03-01T08:52:22.194Z,15.02
2018-03-01T08:54:49.773Z,22.23
2018-03-01T08:57:17.409Z,23.90
2018-03-01T08:59:45.087Z,22.95
2018-03-01T09:02:13.604Z,22.85
2018-03-01T09:04:41.531Z,21.35
2018-03-01T09:07:09.120Z,19.00
2018-03-01T09:09:37.036Z,24.12
2018-03-01T09:12:05.433Z,17.98
2018-03-01T09:14:33.017Z,21.55
2018-03-01T09:17:00.602Z,10.43
2018-03-01T09:19:28.292Z,19.40
2018-03-01T09:21:55.830Z,22.08
2018-03-01T09:24:23.420Z,16.80
2018-03-01T09:26:51.415Z,23.05
2018-03-01T09:29:19.020Z,21.25
2018-03-01T09:31:46.607Z,15.82
2018-03-01T09:34:14.341Z,19.75
2018-03-01T09:36:42.712Z,17.50
2018-03-01T09:39:10.312Z,12.63
2018-03-01T09:41:38.058Z,20.62
2018-03-01T09:44:05.902Z,15.93
2018-03-01T09:46:35.988Z,23.42
2018-03-01T09:49:04.015Z,15.35
2018-03-01T09:51:31.687Z,21.90
2018-03-01T09:53:59.291Z,20.27
2018-03-01T09:56:26.899Z,22.00
2018-03-01T09:58:55.250Z,23.05
2018-03-01T10:01:23.649Z,19.95
2018-03-01T10:03:52.350Z,23.60
2018-03-01T10:06:19.905Z,22.35
2018-03-01T10:08:47.484Z,20.50
2018-03-01T10:11:15.559Z,18.42
2018-03-01T10:13:43.176Z,11.80
2018-03-01T10:16:10.823Z,22.92
2018-03-01T10:18:39.234Z,12.40
2018-03-01T10:21:07.574Z,22.00
2018-03-01T10:23:36.010Z,23.20
2018-03-01T10:26:03.909Z,23.27
2018-03-01T10:28:37.914Z,23.85
2018-03-01T10:31:06.223Z,24.37
2018-03-01T10:33:39.433Z,19.17
2018-03-01T10:36:08.139Z,24.02
2018-03-01T10:38:36.734Z,20.35
2018-03-01T10:41:04.935Z,12.95
2018-03-01T10:43:32.700Z,21.48
2018-03-01T10:46:01.353Z,21.37
2018-03-01T10:48:29.783Z,21.73
2018-03-01T10:50:57.476Z,25.85
2018-03-01T10:53:38.443Z,19.62
2018-03-01T10:56:06.123Z,21.30
2018-03-01T10:58:34.497Z,21.40
2018-03-01T11:01:02.819Z,20.83
2018-03-01T11:03:30.502Z,24.60
2018-03-01T11:05:59.023Z,21.92
2018-03-01T11:08:26.652Z,14.82
2018-03-01T11:10:54.623Z,17.08
2018-03-01T11:13:23.346Z,21.02
2018-03-01T11:15:50.946Z,19.50
2018-03-01T11:18:18.599Z,17.12
2018-03-01T11:20:46.990Z,23.60
2018-03-01T11:23:14.587Z,22.02
2018-03-01T11:25:43.078Z,21.90
2018-03-01T11:28:10.646Z,19.42
2018-03-01T11:30:38.224Z,18.35
2018-03-01T11:33:05.938Z,22.58
2018-03-01T11:35:34.366Z,20.25
2018-03-01T11:38:02.590Z,20.20
2018-03-01T11:40:31.269Z,22.10
2018-03-01T11:42:58.834Z,21.90
2018-03-01T11:45:26.402Z,18.70
2018-03-01T11:47:54.374Z,23.90
2018-03-01T11:50:21.909Z,25.02
2018-03-01T11:52:49.431Z,24.75
2018-03-01T11:55:17.066Z,23.60
2018-03-01T11:57:44.627Z,21.25
2018-03-01T12:00:12.202Z,23.87
2018-03-01T12:02:40.548Z,20.75
2018-03-01T12:05:08.113Z,22.75
2018-03-01T12:07:35.663Z,25.25
2018-03-01T12:10:03.626Z,22.08
2018-03-01T12:12:31.150Z,19.77
2018-03-01T12:14:58.692Z,20.92
2018-03-01T12:17:32.278Z,17.17
2018-03-01T12:28:26.865Z,19.25
2018-03-01T12:33:48.602Z,24.67
2018-03-01T12:36:16.218Z,23.62
2018-03-01T12:38:45.596Z,22.15
2018-03-01T12:41:17.746Z,21.87
2018-03-01T12:43:45.292Z,12.15
2018-03-01T12:46:12.866Z,20.90
2018-03-01T12:48:42.445Z,19.17
2018-03-01T12:51:14.682Z,20.25
2018-03-01T12:53:42.258Z,23.33
2018-03-01T12:56:11.573Z,23.12
2018-03-01T12:58:40.831Z,19.70
2018-03-01T13:01:11.394Z,23.20
2018-03-01T13:03:39.832Z,21.92
2018-03-01T13:06:07.387Z,21.10
2018-03-01T13:08:38.759Z,18.98
2018-03-01T13:11:14.522Z,23.75
2018-03-01T13:13:42.498Z,22.52
2018-03-01T13:16:10.126Z,24.40
2018-03-01T13:18:38.770Z,24.80
2018-03-01T13:21:11.387Z,18.37
2018-03-01T13:23:44.124Z,23.75
2018-03-01T13:26:12.423Z,21.45
2018-03-01T13:28:39.974Z,24.15
2018-03-01T13:31:11.186Z,23.60
2018-03-01T13:33:38.710Z,22.85
2018-03-01T13:36:06.241Z,24.20
2018-03-01T13:38:33.846Z,24.50
2018-03-01T13:41:01.395Z,25.15
2018-03-01T13:43:31.497Z,22.15
2018-03-01T13:49:04.333Z,24.05
2018-03-01T13:51:31.957Z,21.60
2018-03-01T13:56:28.353Z,22.62
2018-03-01T13:58:56.845Z,25.12
2018-03-01T14:01:25.256Z,25.42
2018-03-01T14:03:53.313Z,25.98
2018-03-01T14:06:38.582Z,24.30
2018-03-01T14:09:06.172Z,21.40
2018-03-01T14:11:33.783Z,19.60
2018-03-01T14:14:02.950Z,24.15
2018-03-01T14:16:30.535Z,21.55
2018-03-01T14:19:04.768Z,23.60
2018-03-01T14:24:34.223Z,23.83
2018-03-01T14:27:16.656Z,17.95
2018-03-01T14:29:45.168Z,24.87
2018-03-01T14:32:12.961Z,24.73
2018-03-01T14:34:40.584Z,25.08
2018-03-01T14:37:08.317Z,22.95
2018-03-01T14:39:35.877Z,21.75
2018-03-01T14:42:03.502Z,26.92
2018-03-01T14:44:31.259Z,26.90
2018-03-01T14:46:59.582Z,23.65
2018-03-01T14:49:27.924Z,25.37
2018-03-01T14:51:55.705Z,26.00
2018-03-01T14:54:24.038Z,26.02
2018-03-01T14:56:51.619Z,24.17
2018-03-01T14:59:19.234Z,27.02
2018-03-01T15:01:46.842Z,28.42
2018-03-01T15:04:15.453Z,16.77
2018-03-01T15:06:43.095Z,27.15
2018-03-01T15:09:10.659Z,25.27
2018-03-01T15:11:38.263Z,27.60
2018-03-01T15:14:06.831Z,25.75
2018-03-01T15:16:34.599Z,25.35
2018-03-01T15:19:02.173Z,23.30
2018-03-01T15:21:29.918Z,24.08
2018-03-01T15:23:57.491Z,26.17
2018-03-01T15:26:25.499Z,26.92
2018-03-01T15:28:53.397Z,21.55
2018-03-01T15:31:20.961Z,20.27
2018-03-01T15:33:48.563Z,25.88
2018-03-01T15:36:16.187Z,22.10
2018-03-01T15:38:43.957Z,25.95
2018-03-01T15:41:12.297Z,25.45
2018-03-01T15:43:39.982Z,25.92
2018-03-01T15:46:07.595Z,28.25
2018-03-01T15:48:36.008Z,21.08
2018-03-01T15:51:03.645Z,26.12
2018-03-01T15:53:31.287Z,26.45
2018-03-01T15:55:58.849Z,23.55
2018-03-01T15:58:28.309Z,24.25
2018-03-01T16:00:56.696Z,20.88
2018-03-01T16:03:25.338Z,25.27
2018-03-01T16:05:53.498Z,24.12
2018-03-01T16:08:21.309Z,16.90
2018-03-01T16:10:48.935Z,23.40
2018-03-01T16:13:16.679Z,20.37
2018-03-01T16:15:44.269Z,21.00
2018-03-01T16:18:12.601Z,25.70
2018-03-01T16:20:40.326Z,23.77
2018-03-01T16:23:07.905Z,26.70
2018-03-01T16:25:37.209Z,22.95
2018-03-01T16:28:06.838Z,19.52
2018-03-01T16:30:34.489Z,25.55
2018-03-01T16:33:02.060Z,24.77
2018-03-01T16:35:30.617Z,25.58
2018-03-01T16:37:58.971Z,28.62
2018-03-01T16:40:27.313Z,27.73
2018-03-01T16:42:55.890Z,27.42
2018-03-01T16:45:25.248Z,26.15
2018-03-01T16:47:53.307Z,15.65
2018-03-01T16:50:23.404Z,24.80
2018-03-01T16:52:51.775Z,18.15
2018-03-01T16:55:20.566Z,27.90
2018-03-01T16:57:50.302Z,24.27
2018-03-01T17:00:17.879Z,22.92
2018-03-01T17:02:46.236Z,24.63
2018-03-01T17:05:14.011Z,21.90
2018-03-01T17:07:41.612Z,26.27
2018-03-01T17:10:09.202Z,25.92
2018-03-01T17:12:38.819Z,28.87
2018-03-01T17:15:06.481Z,25.98
2018-03-01T17:17:34.094Z,24.58
2018-03-01T17:20:02.033Z,27.42
2018-03-01T17:22:29.632Z,27.62
2018-03-01T17:24:57.191Z,28.70
2018-03-01T17:27:26.377Z,24.92
2018-03-01T17:29:55.595Z,29.23
2018-03-01T17:32:23.935Z,21.67
2018-03-01T17:34:51.561Z,26.42
2018-03-01T17:37:19.226Z,26.55
2018-03-01T17:39:46.805Z,17.00
2018-03-01T17:42:14.476Z,29.33
2018-03-01T17:44:42.851Z,28.92
2018-03-01T17:47:11.382Z,27.13
2018-03-01T17:49:39.007Z,18.75
2018-03-01T17:52:06.632Z,23.75
2018-03-01T17:54:34.325Z,29.92
2018-03-01T17:57:02.047Z,29.50
2018-03-01T17:59:29.626Z,29.40
2018-03-01T18:01:58.062Z,29.15
2018-03-01T18:04:26.478Z,22.08
2018-03-01T18:06:54.862Z,16.77
2018-03-01T18:09:22.520Z,26.95
2018-03-01T18:11:51.126Z,27.85
2018-03-01T18:14:19.684Z,27.20
2018-03-01T18:16:47.332Z,26.75
2018-03-01T18:19:16.954Z,27.17
2018-03-01T18:21:44.595Z,17.42
2018-03-01T18:24:12.260Z,29.12
2018-03-01T18:26:39.941Z,25.73
2018-03-01T18:29:07.555Z,29.05
2018-03-01T18:31:35.897Z,25.12
2018-03-01T18:34:04.315Z,26.40
2018-03-01T18:36:31.921Z,29.10
2018-03-01T18:39:00.247Z,27.33
2018-03-01T18:41:28.200Z,28.40
2018-03-01T18:43:55.846Z,27.15
2018-03-01T18:46:24.445Z,31.12
2018-03-01T18:48:52.454Z,27.73
2018-03-01T18:51:20.038Z,28.25
2018-03-01T18:53:47.583Z,24.17
2018-03-01T18:56:15.216Z,31.10
2018-03-01T18:58:42.794Z,30.23
2018-03-01T19:01:10.559Z,23.50
2018-03-01T19:03:38.131Z,24.85
2018-03-01T19:06:05.822Z,28.15
2018-03-01T19:08:33.443Z,28.50
2018-03-01T19:11:01.986Z,30.15
2018-03-01T19:13:30.501Z,27.48
2018-03-01T19:15:58.129Z,25.27
2018-03-01T19:18:25.898Z,18.90
2018-03-01T19:20:53.818Z,30.30
2018-03-01T19:23:21.375Z,30.27
2018-03-01T19:25:49.290Z,28.70
2018-03-01T19:28:16.926Z,30.85
2018-03-01T19:30:44.479Z,28.20
2018-03-01T19:33:12.471Z,26.48
2018-03-01T19:35:40.050Z,27.77
2018-03-01T19:38:07.646Z,26.77
2018-03-01T19:40:35.266Z,25.88
2018-03-01T19:43:02.864Z,26.58
2018-03-01T19:45:31.524Z,23.80
2018-03-01T19:47:59.122Z,28.58
2018-03-01T19:50:26.849Z,30.35
2018-03-01T19:52:57.379Z,25.88
2018-03-01T19:55:25.910Z,30.23
2018-03-01T19:57:54.007Z,32.28
2018-03-01T20:00:22.412Z,29.25
2018-03-01T20:02:50.084Z,31.15
2018-03-01T20:05:17.651Z,26.35
2018-03-01T20:07:46.265Z,33.25
2018-03-01T20:10:14.756Z,25.12
2018-03-01T20:12:42.336Z,30.77
2018-03-01T20:15:09.928Z,33.05
2018-03-01T20:17:37.565Z,29.63
2018-03-01T20:20:05.151Z,20.52
2018-03-01T20:22:33.053Z,35.45
2018-03-01T20:25:00.772Z,33.78
2018-03-01T20:27:32.316Z,28.90
2018-03-01T20:30:00.700Z,35.47
2018-03-01T20:32:28.307Z,29.12
2018-03-01T20:34:56.889Z,34.38
2018-03-01T20:37:25.265Z,21.15
2018-03-01T20:39:53.978Z,30.30
2018-03-01T20:42:22.350Z,35.95
2018-03-01T20:44:50.023Z,32.65
2018-03-01T20:47:17.905Z,32.58
2018-03-01T20:49:45.578Z,35.28
2018-03-01T20:52:13.186Z,32.55
2018-03-01T20:54:41.582Z,33.70
2018-03-01T20:57:09.186Z,34.60
2018-03-01T20:59:36.756Z,28.62
2018-03-01T21:02:04.486Z,33.85
2018-03-01T21:04:32.227Z,31.80
2018-03-01T21:07:00.631Z,28.00
2018-03-01T21:09:28.347Z,22.02
2018-03-01T21:11:55.979Z,34.13
2018-03-01T21:14:24.730Z,29.37
2018-03-01T21:16:54.008Z,34.50
2018-03-01T21:19:22.409Z,28.20
2018-03-01T21:21:49.982Z,35.55
2018-03-01T21:24:18.680Z,35.38
2018-03-01T21:26:46.238Z,30.90
2018-03-01T21:29:13.811Z,26.52
2018-03-01T21:31:42.153Z,35.45
2018-03-01T21:34:09.849Z,32.97
2018-03-01T21:36:37.448Z,29.27
2018-03-01T21:39:05.800Z,21.17
2018-03-01T21:41:33.365Z,29.17
2018-03-01T21:44:01.736Z,36.22
2018-03-01T21:46:29.421Z,35.40
2018-03-01T21:48:57.066Z,26.83
2018-03-01T21:51:25.572Z,35.88
2018-03-01T21:53:54.482Z,32.35
2018-03-01T21:56:22.280Z,36.15
2018-03-01T21:58:49.933Z,35.17
2018-03-01T22:01:18.387Z,34.58
2018-03-01T22:03:45.929Z,34.28
2018-03-01T22:06:13.483Z,26.58
2018-03-01T22:08:41.896Z,33.40
2018-03-01T22:11:09.493Z,32.72
2018-03-01T22:13:37.851Z,27.35
2018-03-01T22:16:06.213Z,34.83
2018-03-01T22:18:33.796Z,31.30
2018-03-01T22:21:01.347Z,28.17
2018-03-01T22:23:28.962Z,34.97
2018-03-01T22:25:57.282Z,28.92
2018-03-01T22:28:26.584Z,33.83
2018-03-01T22:30:55.323Z,33.55
2018-03-01T22:33:24.618Z,38.00
2018-03-01T22:35:54.427Z,34.83
2018-03-01T22:38:41.516Z,32.67
2018-03-01T22:41:09.109Z,32.67
2018-03-01T22:46:14.125Z,34.80
2018-03-01T22:48:41.736Z,36.13
2018-03-01T22:51:09.366Z,34.67
2018-03-01T22:53:38.447Z,31.33
2018-03-01T22:56:06.938Z,35.78
2018-03-01T22:58:35.529Z,22.80
2018-03-01T23:01:03.998Z,28.05
2018-03-01T23:03:31.570Z,21.60
2018-03-01T23:05:59.191Z,21.65
2018-03-01T23:08:26.753Z,34.10
2018-03-01T23:10:55.180Z,35.55
2018-03-01T23:13:23.330Z,31.70
2018-03-01T23:15:50.983Z,23.58
2018-03-01T23:18:18.538Z,28.27
2018-03-01T23:20:46.145Z,31.17
2018-03-01T23:23:14.489Z,16.05
2018-03-01T23:25:42.825Z,22.00
2018-03-01T23:28:10.592Z,39.67
2018-03-01T23:30:38.173Z,32.38
2018-03-01T23:33:05.730Z,21.30
2018-03-01T23:35:33.680Z,15.30
2018-03-01T23:38:01.343Z,35.70
2018-03-01T23:40:28.890Z,24.63
2018-03-01T23:42:56.580Z,36.08
2018-03-01T23:45:25.109Z,29.70
2018-03-01T23:47:54.250Z,31.60
2018-03-01T23:50:22.147Z,36.00
2018-03-01T23:52:49.734Z,32.38
2018-03-01T23:55:17.333Z,34.75
2018-03-01T23:57:45.100Z,28.62
